createdAt,value
2023-03-26T00:00:11.696Z,11.99
2023-03-26T00:03:19.516Z,11.87
2023-03-26T00:06:24.688Z,11.90
2023-03-26T00:09:29.309Z,11.17
2023-03-26T00:12:33.478Z,11.83
2023-03-26T00:15:38.021Z,12.15
2023-03-26T00:18:42.304Z,12.23
2023-03-26T00:21:46.513Z,12.23
2023-03-26T00:24:50.770Z,12.22
2023-03-26T00:27:54.857Z,12.38
2023-03-26T00:31:00.235Z,12.43
2023-03-26T00:34:04.165Z,12.09
2023-03-26T00:37:08.144Z,12.11
2023-03-26T00:40:11.932Z,12.30
2023-03-26T00:43:38.400Z,12.27
2023-03-26T00:46:41.573Z,11.96
2023-03-26T00:49:56.172Z,11.52
2023-03-26T00:53:00.381Z,11.95
2023-03-26T00:56:06.784Z,11.81
2023-03-26T00:59:12.090Z,11.88
2023-03-26T01:02:16.178Z,12.10
2023-03-26T01:05:21.886Z,12.17
2023-03-26T01:08:26.070Z,12.21
2023-03-26T01:11:30.042Z,12.33
2023-03-26T01:14:34.015Z,11.95
2023-03-26T01:17:48.412Z,12.19
2023-03-26T01:20:56.873Z,12.11
2023-03-26T01:24:05.491Z,11.85
2023-03-26T01:27:09.615Z,12.14
2023-03-26T01:30:14.038Z,12.31
2023-03-26T01:33:18.327Z,11.84
2023-03-26T01:36:23.950Z,11.67
2023-03-26T01:39:28.291Z,11.60
2023-03-26T01:42:32.190Z,11.92
2023-03-26T01:45:37.501Z,11.72
2023-03-26T01:48:45.945Z,11.35
2023-03-26T01:51:52.747Z,11.46
2023-03-26T01:54:57.032Z,12.00
2023-03-26T01:58:00.925Z,12.03
2023-03-26T02:01:04.947Z,12.13
2023-03-26T02:04:09.288Z,12.32
2023-03-26T02:07:14.451Z,12.42
2023-03-26T02:10:23.230Z,12.27
2023-03-26T02:13:27.527Z,12.00
2023-03-26T02:16:31.848Z,12.31
2023-03-26T02:19:35.930Z,11.46
2023-03-26T02:22:41.191Z,11.76
2023-03-26T02:26:03.629Z,12.19
2023-03-26T02:29:30.357Z,11.91
2023-03-26T02:32:33.859Z,11.98
2023-03-26T02:35:38.073Z,11.92
2023-03-26T02:40:11.221Z,11.87
2023-03-26T02:42:15.291Z,11.69
2023-03-26T02:45:19.357Z,11.71
2023-03-26T02:48:23.144Z,12.01
2023-03-26T02:51:49.743Z,12.26
2023-03-26T02:54:53.180Z,11.80
2023-03-26T02:57:59.651Z,12.05
2023-03-26T03:01:05.236Z,11.93
2023-03-26T03:04:09.524Z,12.06
2023-03-26T03:07:13.187Z,11.81
2023-03-26T03:10:17.198Z,11.66
2023-03-26T03:13:25.641Z,11.63
2023-03-26T03:16:30.670Z,11.28
2023-03-26T03:19:35.762Z,11.19
2023-03-26T03:23:02.709Z,11.42
2023-03-26T03:26:06.186Z,11.40
2023-03-26T03:29:11.442Z,11.64
2023-03-26T03:32:15.391Z,11.89
2023-03-26T03:35:19.428Z,11.94
2023-03-26T03:38:33.967Z,11.59
2023-03-26T03:41:42.455Z,11.68
2023-03-26T03:44:46.706Z,11.79
2023-03-26T03:47:50.722Z,11.72
2023-03-26T03:50:57.733Z,11.68
2023-03-26T03:54:03.204Z,11.55
2023-03-26T03:57:07.193Z,11.76
2023-03-26T04:00:14.466Z,11.74
2023-03-26T04:03:18.387Z,11.91
2023-03-26T04:06:22.632Z,11.94
2023-03-26T04:09:29.403Z,11.95
2023-03-26T04:12:33.615Z,12.04
2023-03-26T04:15:37.643Z,12.18
2023-03-26T04:18:43.178Z,11.90
2023-03-26T04:21:47.286Z,12.15
2023-03-26T04:24:55.380Z,12.16
2023-03-26T04:27:59.703Z,12.24
2023-03-26T04:31:05.464Z,12.06
2023-03-26T04:34:09.515Z,12.18
2023-03-26T04:37:13.417Z,11.98
2023-03-26T04:40:17.468Z,11.97
2023-03-26T04:43:21.457Z,11.73
2023-03-26T04:46:25.275Z,11.71
2023-03-26T04:49:33.791Z,11.60
2023-03-26T04:52:45.709Z,11.80
2023-03-26T04:55:50.092Z,11.71
2023-03-26T04:58:55.148Z,11.83
2023-03-26T05:01:59.450Z,11.28
2023-03-26T05:05:05.230Z,11.42
2023-03-26T05:08:31.964Z,11.38
2023-03-26T05:11:35.507Z,11.48
2023-03-26T05:14:45.685Z,11.27
2023-03-26T05:17:54.002Z,11.43
2023-03-26T05:20:59.544Z,11.15
2023-03-26T05:24:03.684Z,11.27
2023-03-26T05:27:07.590Z,11.43
2023-03-26T05:30:12.111Z,11.31
2023-03-26T05:33:15.976Z,11.36
2023-03-26T05:36:19.893Z,11.36
2023-03-26T05:39:23.909Z,11.73
2023-03-26T05:42:28.291Z,11.83
2023-03-26T05:45:32.313Z,11.78
2023-03-26T05:48:37.102Z,11.92
2023-03-26T05:51:40.862Z,11.75
2023-03-26T05:54:48.723Z,11.68
2023-03-26T05:57:53.126Z,11.70
2023-03-26T06:00:57.009Z,11.82
2023-03-26T06:07:25.824Z,11.78
2023-03-26T06:10:56.140Z,11.66
2023-03-26T06:13:56.756Z,11.67
2023-03-26T06:17:00.610Z,11.69
2023-03-26T06:20:24.940Z,11.42
2023-03-26T06:23:51.979Z,11.70
2023-03-26T06:26:55.084Z,11.06
2023-03-26T06:29:59.541Z,11.52
2023-03-26T06:33:03.624Z,11.49
2023-03-26T06:36:18.166Z,11.17
2023-03-26T06:46:19.925Z,11.05
2023-03-26T06:56:16.481Z,11.67
2023-03-26T07:02:46.970Z,11.42
2023-03-26T07:05:54.725Z,11.33
2023-03-26T07:09:05.456Z,11.84
2023-03-26T07:12:13.922Z,11.71
2023-03-26T07:15:18.967Z,11.99
2023-03-26T07:18:27.758Z,11.83
2023-03-26T07:21:38.120Z,11.81
2023-03-26T07:24:45.224Z,11.92
2023-03-26T07:27:50.535Z,12.06
2023-03-26T07:30:56.064Z,12.06
2023-03-26T07:34:01.404Z,11.92
2023-03-26T07:37:05.888Z,11.78
2023-03-26T07:40:09.898Z,12.02
2023-03-26T07:43:14.058Z,11.42
2023-03-26T07:46:18.358Z,11.32
2023-03-26T07:49:23.437Z,11.18
2023-03-26T07:52:27.421Z,11.18
2023-03-26T07:55:31.660Z,11.64
2023-03-26T07:58:35.551Z,11.82
2023-03-26T08:01:39.715Z,11.51
2023-03-26T08:04:43.878Z,11.74
2023-03-26T08:07:49.586Z,11.75
2023-03-26T08:10:54.039Z,11.63
2023-03-26T08:13:58.247Z,11.65
2023-03-26T08:17:02.017Z,11.55
2023-03-26T08:20:05.889Z,11.34
2023-03-26T08:23:09.967Z,11.25
2023-03-26T08:26:13.756Z,11.82
2023-03-26T08:29:17.505Z,11.49
2023-03-26T08:32:21.651Z,11.79
2023-03-26T08:35:27.138Z,12.05
2023-03-26T08:38:32.388Z,12.42
2023-03-26T09:04:50.941Z,13.05
2023-03-26T09:45:40.778Z,12.23
2023-03-26T09:57:15.835Z,11.86
2023-03-26T10:19:32.639Z,12.53
2023-03-26T10:29:42.221Z,11.88
2023-03-26T10:38:47.069Z,12.56
2023-03-26T10:42:05.897Z,12.63
2023-03-26T11:37:03.079Z,12.14
2023-03-26T11:40:09.722Z,11.43
2023-03-26T11:50:18.776Z,11.46
2023-03-26T11:53:29.597Z,10.39
2023-03-26T11:57:04.390Z,9.88
2023-03-26T12:00:12.440Z,9.75
2023-03-26T12:03:19.841Z,10.00
2023-03-26T13:16:46.656Z,9.48
2023-03-26T13:23:28.117Z,10.03
2023-03-26T13:33:26.707Z,10.81
2023-03-26T13:36:37.530Z,10.84
2023-03-26T13:43:34.723Z,10.72
2023-03-26T13:54:19.014Z,11.36
2023-03-26T13:57:43.712Z,11.37
2023-03-26T14:01:08.655Z,11.36
2023-03-26T14:04:19.494Z,11.29
2023-03-26T14:07:15.174Z,11.16
2023-03-26T14:10:23.842Z,10.85
2023-03-26T14:13:50.950Z,10.78
2023-03-26T14:44:50.302Z,11.99
2023-03-26T15:41:47.699Z,13.67
2023-03-26T15:48:03.098Z,14.15
2023-03-26T15:51:13.884Z,14.16
2023-03-26T15:54:22.540Z,13.77
2023-03-26T15:57:26.603Z,14.05
2023-03-26T16:00:30.645Z,13.61
2023-03-26T16:03:38.425Z,13.11
2023-03-26T16:06:44.335Z,12.92
2023-03-26T16:09:48.718Z,12.47
2023-03-26T16:12:54.515Z,12.79
2023-03-26T16:19:26.457Z,12.77
2023-03-26T16:22:47.838Z,12.76
2023-03-26T16:26:04.012Z,12.72
2023-03-26T16:29:10.752Z,12.71
2023-03-26T16:32:17.850Z,12.76
2023-03-26T16:35:22.306Z,12.22
2023-03-26T16:38:26.295Z,12.48
2023-03-26T16:41:30.475Z,12.62
2023-03-26T16:44:34.698Z,12.60
2023-03-26T16:47:38.726Z,12.71
2023-03-26T16:50:42.660Z,12.96
2023-03-26T16:53:46.753Z,13.27
2023-03-26T16:56:50.650Z,12.81
2023-03-26T17:00:05.486Z,12.70
2023-03-26T17:03:11.324Z,12.37
2023-03-26T17:06:15.510Z,12.16
2023-03-26T17:09:19.560Z,12.34
2023-03-26T17:12:23.663Z,12.38
2023-03-26T17:15:27.715Z,12.24
2023-03-26T17:18:31.979Z,11.79
2023-03-26T17:21:46.271Z,12.06
2023-03-26T17:24:50.945Z,11.80
2023-03-26T17:27:54.784Z,11.07
2023-03-26T17:30:58.774Z,11.05
2023-03-26T17:34:03.213Z,11.17
2023-03-26T17:37:07.388Z,10.95
2023-03-26T17:40:11.348Z,10.68
2023-03-26T17:43:15.324Z,11.06
2023-03-26T17:46:19.117Z,11.37
2023-03-26T17:49:22.973Z,11.74
2023-03-26T17:52:27.016Z,11.61
2023-03-26T17:55:30.877Z,11.41
2023-03-26T17:58:34.828Z,11.85
2023-03-26T18:01:38.958Z,11.28
2023-03-26T18:04:43.146Z,11.07
2023-03-26T18:07:47.565Z,11.03
2023-03-26T18:10:51.273Z,11.45
2023-03-26T18:13:55.286Z,11.41
2023-03-26T18:16:59.172Z,11.56
2023-03-26T18:20:03.349Z,10.90
2023-03-26T18:23:07.284Z,11.10
2023-03-26T18:26:11.057Z,11.05
2023-03-26T18:29:15.253Z,10.40
2023-03-26T18:32:19.160Z,10.37
2023-03-26T18:35:23.354Z,9.66
2023-03-26T18:38:35.623Z,9.79
2023-03-26T18:41:41.551Z,10.23
2023-03-26T18:44:45.558Z,10.23
2023-03-26T18:47:49.676Z,10.51
2023-03-26T18:50:53.633Z,10.37
2023-03-26T18:53:57.501Z,10.52
2023-03-26T18:57:01.543Z,10.07
2023-03-26T19:00:19.072Z,9.81
2023-03-26T19:03:23.055Z,9.86
2023-03-26T19:06:27.161Z,10.11
2023-03-26T19:09:32.554Z,10.40
2023-03-26T19:12:36.536Z,10.46
2023-03-26T19:15:40.765Z,10.43
2023-03-26T19:18:44.665Z,10.46
2023-03-26T19:21:48.826Z,10.34
2023-03-26T19:24:52.795Z,10.46
2023-03-26T19:27:56.646Z,10.49
2023-03-26T19:31:00.972Z,10.51
2023-03-26T19:34:05.116Z,10.52
2023-03-26T19:37:09.073Z,10.50
2023-03-26T19:40:12.960Z,10.43
2023-03-26T19:43:16.868Z,10.42
2023-03-26T19:46:21.017Z,10.55
2023-03-26T19:49:27.196Z,10.52
2023-03-26T19:52:32.211Z,10.71
2023-03-26T19:55:36.226Z,10.59
2023-03-26T19:58:39.913Z,10.52
2023-03-26T20:01:43.954Z,10.64
2023-03-26T20:04:48.144Z,10.57
2023-03-26T20:07:52.037Z,10.50
2023-03-26T20:10:56.288Z,10.11
2023-03-26T20:14:00.330Z,10.16
2023-03-26T20:17:05.339Z,10.19
2023-03-26T20:20:17.377Z,10.60
2023-03-26T20:23:22.609Z,10.46
2023-03-26T20:26:26.675Z,10.38
2023-03-26T20:29:30.807Z,10.74
2023-03-26T20:32:34.851Z,10.92
2023-03-26T20:35:38.838Z,10.75
2023-03-26T20:38:42.919Z,10.98
2023-03-26T20:41:47.304Z,10.97
2023-03-26T20:44:51.488Z,10.95
2023-03-26T20:47:55.377Z,10.61
2023-03-26T20:50:59.372Z,10.65
2023-03-26T20:54:03.529Z,10.94
2023-03-26T20:57:07.497Z,10.85
2023-03-26T21:00:11.438Z,10.85
2023-03-26T21:03:15.400Z,10.71
2023-03-26T21:06:19.526Z,10.64
2023-03-26T21:09:23.816Z,10.53
2023-03-26T21:12:30.372Z,10.22
2023-03-26T21:15:34.287Z,10.45
2023-03-26T21:18:38.475Z,10.06
2023-03-26T21:21:42.360Z,10.17
2023-03-26T21:24:46.276Z,10.45
2023-03-26T21:27:50.428Z,10.24
2023-03-26T21:30:54.616Z,10.39
2023-03-26T21:33:58.909Z,9.96
2023-03-26T21:37:03.004Z,9.73
2023-03-26T21:40:08.016Z,9.63
2023-03-26T21:43:12.363Z,9.56
2023-03-26T21:46:16.600Z,9.79
2023-03-26T21:49:20.662Z,10.07
2023-03-26T21:52:24.699Z,10.13
2023-03-26T21:55:28.875Z,10.49
2023-03-26T21:58:33.128Z,10.60
2023-03-26T22:01:37.067Z,10.68
2023-03-26T22:04:41.061Z,10.74
2023-03-26T22:07:45.055Z,10.19
2023-03-26T22:10:49.209Z,10.56
2023-03-26T22:13:55.360Z,10.63
2023-03-26T22:16:59.339Z,10.77
2023-03-26T22:20:03.087Z,10.75
2023-03-26T22:23:07.001Z,10.47
2023-03-26T22:26:11.035Z,10.49
2023-03-26T22:29:15.154Z,10.68
2023-03-26T22:32:19.075Z,10.73
2023-03-26T22:35:23.114Z,10.71
2023-03-26T22:38:27.096Z,10.60
2023-03-26T22:41:31.120Z,10.67
2023-03-26T22:44:34.887Z,10.47
2023-03-26T22:47:40.972Z,10.41
2023-03-26T22:50:44.625Z,10.00
2023-03-26T22:53:49.007Z,10.01
2023-03-26T22:56:53.172Z,10.29
2023-03-26T22:59:57.184Z,10.06
2023-03-26T23:03:01.317Z,10.30
2023-03-26T23:06:05.205Z,9.25
2023-03-26T23:09:09.358Z,9.54
2023-03-26T23:12:13.514Z,10.03
2023-03-26T23:15:17.414Z,10.30
2023-03-26T23:18:21.690Z,10.22
2023-03-26T23:21:25.985Z,9.70
2023-03-26T23:24:30.221Z,10.03
2023-03-26T23:27:34.273Z,10.27
2023-03-26T23:30:38.272Z,9.52
2023-03-26T23:33:42.192Z,9.86
2023-03-26T23:36:46.220Z,10.06
2023-03-26T23:39:50.192Z,10.06
2023-03-26T23:42:53.979Z,10.22
2023-03-26T23:45:59.706Z,10.27
2023-03-26T23:49:03.854Z,9.91
2023-03-26T23:52:07.726Z,10.14
2023-03-26T23:55:11.741Z,10.23
2023-03-26T23:58:15.504Z,10.18
